Port Lions, AK (99550)

2:38 AM AKST on February 11, 2016 (GMT -0900)
Kodiak | | Change Station
CLOSE
Current Station
Airport
Location: Kodiak,
Elevation: 112 ft
Nearby Weather Stations

Elev 112 ft 57.75 °N, 152.49 °W | Updated 7 minutes ago

Light Rain
Light Rain Mist
39 °F
Feels Like 28 °F
N
23
Wind Variable Wind from North
Gusts 32 mph

Today
High -- | Low -- °F
--% Chance of Precip.
Yesterday
High -- | Low -- °F
Precip. -- in
Pressure 29.23 in
Visibility 5.0 miles
Clouds Scattered Clouds 1000 ft
Overcast 1400 ft
Windchill 28 °F
Dew Point 39 °F
Humidity 100%
Rainfall 0.29 in
Snow Depth Not available.
8:53 AM 6:00 PM
Waxing Crescent, 11% visible
SPECI PADQ 111131Z 01020G28KT 5SM -RA BR SCT010 OVC014 04/04 A2923 RMK AO2 PK WND 35028/1131 P0008 T00390039
Pressure 29.23 in
Visibility 5.0 miles
Clouds Scattered Clouds 1000 ft
Overcast 1400 ft
Windchill 28 °F
Dew Point 39 °F
Humidity 100%
Rainfall 0.29 in
Snow Depth Not available.
8:53 AM 6:00 PM
Waxing Crescent, 11% visible
SPECI PADQ 111131Z 01020G28KT 5SM -RA BR SCT010 OVC014 04/04 A2923 RMK AO2 PK WND 35028/1131 P0008 T00390039

10-Day Weather Forecast

Almanac

Astronomy

Feb. 11, 2016 Rise Set
Actual Time
Civil Twilight
Nautical Twilight
Astronomical Twilight
Moon
Length of Visible Light
Length of Day
Tomorrow will be .
, % of the Moon is Illuminated

Today's Extremes

State Highs State Lows

Community

WunderPhotos

Upload Photos

1,892,030 photos uploaded!

WunderBlog® & News

Nearby

Air Quality

  Air Quality AQ Index Pollutant
Not available.

Snow Depth

Station Depth Elevation

Earthquake Activity

City Distance Mag. Time & Date
Minimum magnitude displayed is 2.5.

Coastal Water Temperatures

Place Temperature

Stations

Nearby Weather Stations

Station Location Temp. Windchill Dew Point Humidity Wind Precip. Elev Updated Type
                   

Watches & Warnings

There are currently no watches in effect.